Time;durP1;ratioP1;P1;durP2;ratioP2;P2;SDS_P1;SDS_P2;PMS_P1;PMS_P2;Temp;Humidity;BMP_temperature;BMP_pressure;BME280_temperature;BME280_humidity;BME280_pressure;Samples;Min_cycle;Max_cycle;Signal;HPM_P1;HPM_P2
2023/06/14 18:44:25;;;;;;;;;;;21.10;93.00;;;;;;5071573;28;20403;-89
2023/06/14 18:46:51;;;;;;;;;;;20.90;93.70;;;;;;5053277;28;19913;-89
2023/06/14 18:49:16;;;;;;;;;;;20.80;94.90;;;;;;5047083;28;19936;-89
2023/06/14 18:51:42;;;;;;;;;;;20.90;95.50;;;;;;5060007;28;19913;-91
2023/06/14 18:54:17;;;;;;;;;;;20.90;96.10;;;;;;5058770;28;19913;-96
2023/06/14 18:56:45;;;;;;;;;;;20.90;96.70;;;;;;5069516;28;19909;-96
2023/06/14 18:59:11;;;;;;;;;;;20.90;97.20;;;;;;5067511;28;19960;-91
2023/06/14 19:01:36;;;;;;;;;;;21.00;97.50;;;;;;5058887;28;20493;-91
2023/06/14 19:04:05;;;;;;;;;;;21.00;97.70;;;;;;5059456;28;19928;-96
2023/06/14 19:06:31;;;;;;;;;;;21.00;97.90;;;;;;5053056;28;20374;-94
2023/06/14 19:09:02;;;;;;;;;;;21.00;98.20;;;;;;5052588;28;19921;-94
2023/06/14 19:11:27;;;;;;;;;;;21.00;98.40;;;;;;5052812;28;19913;-92
2023/06/14 19:13:53;;;;;;;;;;;21.00;98.60;;;;;;5054736;28;19920;-95
2023/06/14 19:16:18;;;;;;;;;;;21.00;99.00;;;;;;5060242;28;19913;-94
2023/06/14 19:18:44;;;;;;;;;;;21.00;99.00;;;;;;5071044;28;19913;-95
2023/06/14 19:21:10;;;;;;;;;;;21.00;99.00;;;;;;5054312;28;19919;-94
2023/06/14 19:23:37;;;;;;;;;;;21.00;99.20;;;;;;5051795;28;20262;-92
2023/06/14 19:26:03;;;;;;;;;;;21.00;99.00;;;;;;5049761;28;19960;-91
2023/06/14 19:28:28;;;;;;;;;;;21.00;98.90;;;;;;5047760;28;19917;-90
2023/06/14 19:30:57;;;;;;;;;;;21.00;98.80;;;;;;5048643;28;19919;-92
2023/06/14 19:33:23;;;;;;;;;;;21.00;98.70;;;;;;5056292;28;19914;-94
2023/06/14 19:35:49;;;;;;;;;;;21.00;98.70;;;;;;5058018;28;19916;-95
2023/06/14 19:38:15;;;;;;;;;;;20.90;98.80;;;;;;5054278;28;20054;-92
2023/06/14 19:40:40;;;;;;;;;;;20.90;98.90;;;;;;5049143;28;20358;-91
2023/06/14 19:43:08;;;;;;;;;;;20.90;99.00;;;;;;5060678;28;20004;-94
2023/06/14 19:45:34;;;;;;;;;;;20.90;99.10;;;;;;5070511;28;19905;-94
2023/06/14 19:48:00;;;;;;;;;;;20.90;99.20;;;;;;5057598;28;19958;-91
2023/06/14 19:50:25;;;;;;;;;;;20.90;99.30;;;;;;5079076;28;19917;-92
2023/06/14 19:52:56;;;;;;;;;;;20.90;99.30;;;;;;5073616;28;19955;-96
2023/06/14 19:55:24;;;;;;;;;;;20.90;99.30;;;;;;5057683;28;19926;-96
2023/06/14 19:57:50;;;;;;;;;;;20.90;99.20;;;;;;5052240;28;19913;-94
2023/06/14 20:00:16;;;;;;;;;;;20.90;99.50;;;;;;5051490;28;19920;-95
2023/06/14 20:02:42;;;;;;;;;;;20.90;99.30;;;;;;5066585;28;19920;-93
2023/06/14 20:05:08;;;;;;;;;;;20.90;99.40;;;;;;5073242;28;19924;-95
2023/06/14 20:07:33;;;;;;;;;;;20.90;99.40;;;;;;5053322;28;20319;-95
2023/06/14 20:09:59;;;;;;;;;;;20.80;99.50;;;;;;5059428;28;19948;-96
2023/06/14 20:12:24;;;;;;;;;;;20.80;99.60;;;;;;5051110;28;20310;-95
2023/06/14 20:14:50;;;;;;;;;;;20.80;99.60;;;;;;5074803;28;19919;-96
2023/06/14 20:17:16;;;;;;;;;;;20.70;99.70;;;;;;5053153;28;19912;-91
2023/06/14 20:19:43;;;;;;;;;;;20.70;99.70;;;;;;5071825;28;19988;-96
2023/06/14 20:22:08;;;;;;;;;;;20.70;99.80;;;;;;5042689;28;19920;-96
2023/06/14 20:24:34;;;;;;;;;;;20.60;99.80;;;;;;5058507;28;19920;-91
2023/06/14 20:27:00;;;;;;;;;;;20.60;99.90;;;;;;5036890;28;19912;-91
2023/06/14 20:29:25;;;;;;;;;;;20.50;99.90;;;;;;5054688;28;19921;-92
2023/06/14 20:31:50;;;;;;;;;;;20.40;99.90;;;;;;5056726;28;20364;-92
2023/06/14 20:34:16;;;;;;;;;;;20.40;99.90;;;;;;5056028;28;19912;-91
2023/06/14 20:36:43;;;;;;;;;;;20.30;99.90;;;;;;5064051;28;19912;-96
2023/06/14 20:39:09;;;;;;;;;;;20.30;99.90;;;;;;5073145;28;19909;-96
2023/06/14 20:41:36;;;;;;;;;;;20.20;99.90;;;;;;5058519;28;19936;-96
2023/06/14 20:44:06;;;;;;;;;;;20.10;99.90;;;;;;5077328;28;19905;-95
2023/06/14 20:46:32;;;;;;;;;;;20.10;99.90;;;;;;5054464;28;20003;-95
